sensor_id;sensor_type;location;lat;lon;timestamp;pressure;altitude;pressure_sealevel;temperature;humidity
74346;BME280;62776;50.518;6.732;2024-03-06T00:02:25;96611.31;;;4.47;100.00
74346;BME280;62776;50.518;6.732;2024-03-06T00:05:14;96604.47;;;4.47;100.00
74346;BME280;62776;50.518;6.732;2024-03-06T00:08:01;96610.44;;;4.45;100.00
74346;BME280;62776;50.518;6.732;2024-03-06T00:10:49;96611.19;;;4.38;100.00
74346;BME280;62776;50.518;6.732;2024-03-06T00:13:35;96615.47;;;4.36;100.00
74346;BME280;62776;50.518;6.732;2024-03-06T00:16:22;96615.41;;;4.31;100.00
74346;BME280;62776;50.518;6.732;2024-03-06T00:19:08;96619.69;;;4.31;100.00
74346;BME280;62776;50.518;6.732;2024-03-06T00:21:55;96620.47;;;4.27;100.00
74346;BME280;62776;50.518;6.732;2024-03-06T00:24:41;96624.66;;;4.22;100.00
74346;BME280;62776;50.518;6.732;2024-03-06T00:27:28;96635.72;;;4.14;100.00
74346;BME280;62776;50.518;6.732;2024-03-06T00:30:14;96629.63;;;4.09;100.00
74346;BME280;62776;50.518;6.732;2024-03-06T00:33:01;96634.75;;;4.06;100.00
74346;BME280;62776;50.518;6.732;2024-03-06T00:35:50;96636.28;;;3.98;100.00
74346;BME280;62776;50.518;6.732;2024-03-06T00:38:36;96637.16;;;3.99;100.00
74346;BME280;62776;50.518;6.732;2024-03-06T00:41:23;96646.56;;;3.95;100.00
74346;BME280;62776;50.518;6.732;2024-03-06T00:44:09;96641.38;;;3.92;100.00
74346;BME280;62776;50.518;6.732;2024-03-06T00:46:55;96642.13;;;3.88;100.00
74346;BME280;62776;50.518;6.732;2024-03-06T00:49:42;96643.81;;;3.86;100.00
74346;BME280;62776;50.518;6.732;2024-03-06T00:52:29;96643.75;;;3.82;100.00
74346;BME280;62776;50.518;6.732;2024-03-06T00:55:15;96647.09;;;3.78;100.00
74346;BME280;62776;50.518;6.732;2024-03-06T00:58:01;96657.31;;;3.73;100.00
74346;BME280;62776;50.518;6.732;2024-03-06T01:00:48;96664.09;;;3.70;100.00
74346;BME280;62776;50.518;6.732;2024-03-06T01:03:34;96670.00;;;3.64;100.00
74346;BME280;62776;50.518;6.732;2024-03-06T01:06:20;96671.63;;;3.61;100.00
74346;BME280;62776;50.518;6.732;2024-03-06T01:09:11;96674.06;;;3.51;100.00
74346;BME280;62776;50.518;6.732;2024-03-06T01:11:58;96678.38;;;3.54;100.00
74346;BME280;62776;50.518;6.732;2024-03-06T01:14:45;96672.31;;;3.50;100.00
74346;BME280;62776;50.518;6.732;2024-03-06T01:17:31;96675.69;;;3.48;100.00
74346;BME280;62776;50.518;6.732;2024-03-06T01:20:18;96678.25;;;3.48;100.00
74346;BME280;62776;50.518;6.732;2024-03-06T01:23:05;96676.50;;;3.45;100.00
74346;BME280;62776;50.518;6.732;2024-03-06T01:25:51;96673.88;;;3.42;100.00
74346;BME280;62776;50.518;6.732;2024-03-06T01:28:37;96675.56;;;3.42;100.00
74346;BME280;62776;50.518;6.732;2024-03-06T01:31:23;96677.19;;;3.37;100.00
74346;BME280;62776;50.518;6.732;2024-03-06T01:34:10;96679.72;;;3.35;100.00
74346;BME280;62776;50.518;6.732;2024-03-06T01:36:57;96683.09;;;3.33;100.00
74346;BME280;62776;50.518;6.732;2024-03-06T01:39:43;96683.03;;;3.30;100.00
74346;BME280;62776;50.518;6.732;2024-03-06T01:42:29;96689.84;;;3.28;100.00
74346;BME280;62776;50.518;6.732;2024-03-06T01:45:16;96690.66;;;3.25;100.00
74346;BME280;62776;50.518;6.732;2024-03-06T01:48:02;96685.56;;;3.27;100.00
74346;BME280;62776;50.518;6.732;2024-03-06T01:50:48;96685.50;;;3.25;100.00
74346;BME280;62776;50.518;6.732;2024-03-06T01:53:35;96680.25;;;3.19;100.00
74346;BME280;62776;50.518;6.732;2024-03-06T01:56:22;96687.97;;;3.19;100.00
74346;BME280;62776;50.518;6.732;2024-03-06T01:59:10;96692.19;;;3.16;100.00
74346;BME280;62776;50.518;6.732;2024-03-06T02:01:56;96693.81;;;3.12;100.00
74346;BME280;62776;50.518;6.732;2024-03-06T02:04:43;96693.81;;;3.12;100.00
74346;BME280;62776;50.518;6.732;2024-03-06T02:07:32;96689.50;;;3.10;100.00
74346;BME280;62776;50.518;6.732;2024-03-06T02:10:18;96685.25;;;3.12;100.00
74346;BME280;62776;50.518;6.732;2024-03-06T02:13:05;96687.88;;;3.15;100.00
74346;BME280;62776;50.518;6.732;2024-03-06T02:15:51;96686.19;;;3.15;100.00
74346;BME280;62776;50.518;6.732;2024-03-06T02:18:49;96680.94;;;3.11;100.00
74346;BME280;62776;50.518;6.732;2024-03-06T02:21:36;96686.06;;;3.11;100.00
74346;BME280;62776;50.518;6.732;2024-03-06T02:24:22;96681.75;;;3.08;100.00
74346;BME280;62776;50.518;6.732;2024-03-06T02:27:09;96680.03;;;3.09;100.00
74346;BME280;62776;50.518;6.732;2024-03-06T02:29:55;96673.97;;;3.05;100.00
74346;BME280;62776;50.518;6.732;2024-03-06T02:32:41;96668.81;;;3.04;100.00
74346;BME280;62776;50.518;6.732;2024-03-06T02:35:29;96666.19;;;3.01;100.00
74346;BME280;62776;50.518;6.732;2024-03-06T02:38:16;96667.00;;;2.99;100.00
74346;BME280;62776;50.518;6.732;2024-03-06T02:41:03;96659.28;;;2.98;100.00
74346;BME280;62776;50.518;6.732;2024-03-06T02:43:49;96656.63;;;2.93;100.00
74346;BME280;62776;50.518;6.732;2024-03-06T02:46:35;96662.53;;;2.89;100.00
74346;BME280;62776;50.518;6.732;2024-03-06T02:49:21;96663.31;;;2.85;100.00
74346;BME280;62776;50.518;6.732;2024-03-06T02:52:07;96658.13;;;2.84;100.00
74346;BME280;62776;50.518;6.732;2024-03-06T02:54:54;96661.50;;;2.81;100.00
74346;BME280;62776;50.518;6.732;2024-03-06T02:57:40;96663.13;;;2.76;100.00
74346;BME280;62776;50.518;6.732;2024-03-06T03:00:26;96652.72;;;2.70;100.00
74346;BME280;62776;50.518;6.732;2024-03-06T03:03:13;96662.03;;;2.67;100.00
74346;BME280;62776;50.518;6.732;2024-03-06T03:05:59;96667.09;;;2.62;100.00
74346;BME280;62776;50.518;6.732;2024-03-06T03:08:45;96678.13;;;2.58;100.00
74346;BME280;62776;50.518;6.732;2024-03-06T03:11:31;96684.81;;;2.53;100.00
74346;BME280;62776;50.518;6.732;2024-03-06T03:14:18;96679.75;;;2.55;100.00
74346;BME280;62776;50.518;6.732;2024-03-06T03:17:04;96688.38;;;2.58;100.00
74346;BME280;62776;50.518;6.732;2024-03-06T03:19:51;96690.16;;;2.62;100.00
74346;BME280;62776;50.518;6.732;2024-03-06T03:22:40;96701.31;;;2.63;100.00
74346;BME280;62776;50.518;6.732;2024-03-06T03:25:27;96700.50;;;2.65;100.00
74346;BME280;62776;50.518;6.732;2024-03-06T03:28:13;96708.28;;;2.68;100.00
74346;BME280;62776;50.518;6.732;2024-03-06T03:30:59;96713.44;;;2.70;100.00
74346;BME280;62776;50.518;6.732;2024-03-06T03:33:46;96705.81;;;2.73;100.00
74346;BME280;62776;50.518;6.732;2024-03-06T03:36:32;96720.38;;;2.74;100.00
74346;BME280;62776;50.518;6.732;2024-03-06T03:39:19;96722.06;;;2.72;100.00
74346;BME280;62776;50.518;6.732;2024-03-06T03:42:07;96725.50;;;2.74;100.00
74346;BME280;62776;50.518;6.732;2024-03-06T03:44:54;96723.81;;;2.74;100.00
74346;BME280;62776;50.518;6.732;2024-03-06T03:47:40;96721.25;;;2.74;100.00
74346;BME280;62776;50.518;6.732;2024-03-06T03:50:29;96715.25;;;2.75;100.00
74346;BME280;62776;50.518;6.732;2024-03-06T03:53:18;96719.56;;;2.76;100.00
74346;BME280;62776;50.518;6.732;2024-03-06T03:56:05;96724.72;;;2.76;100.00
74346;BME280;62776;50.518;6.732;2024-03-06T03:58:57;96728.03;;;2.72;100.00
74346;BME280;62776;50.518;6.732;2024-03-06T04:01:45;96724.63;;;2.73;100.00
74346;BME280;62776;50.518;6.732;2024-03-06T04:04:32;96729.84;;;2.76;100.00
74346;BME280;62776;50.518;6.732;2024-03-06T04:07:19;96730.66;;;2.75;100.00
74346;BME280;62776;50.518;6.732;2024-03-06T04:10:06;96727.22;;;2.75;100.00
74346;BME280;62776;50.518;6.732;2024-03-06T04:12:53;96722.94;;;2.74;100.00
74346;BME280;62776;50.518;6.732;2024-03-06T04:15:40;96730.59;;;2.72;100.00
74346;BME280;62776;50.518;6.732;2024-03-06T04:18:26;96724.63;;;2.72;100.00
74346;BME280;62776;50.518;6.732;2024-03-06T04:21:15;96727.94;;;2.69;100.00
74346;BME280;62776;50.518;6.732;2024-03-06T04:24:01;96733.03;;;2.66;100.00
74346;BME280;62776;50.518;6.732;2024-03-06T04:26:47;96733.78;;;2.61;100.00
74346;BME280;62776;50.518;6.732;2024-03-06T04:29:34;96734.56;;;2.58;100.00
74346;BME280;62776;50.518;6.732;2024-03-06T04:32:20;96726.75;;;2.54;100.00
74346;BME280;62776;50.518;6.732;2024-03-06T04:35:09;96736.84;;;2.46;100.00
74346;BME280;62776;50.518;6.732;2024-03-06T04:37:56;96741.97;;;2.46;100.00
74346;BME280;62776;50.518;6.732;2024-03-06T04:40:42;96746.13;;;2.41;100.00
74346;BME280;62776;50.518;6.732;2024-03-06T04:43:28;96751.09;;;2.35;100.00
74346;BME280;62776;50.518;6.732;2024-03-06T04:46:15;96761.28;;;2.32;100.00
74346;BME280;62776;50.518;6.732;2024-03-06T04:49:02;96769.59;;;2.23;100.00
74346;BME280;62776;50.518;6.732;2024-03-06T04:51:48;96766.09;;;2.20;100.00
74346;BME280;62776;50.518;6.732;2024-03-06T04:54:35;96767.75;;;2.18;100.00
74346;BME280;62776;50.518;6.732;2024-03-06T04:57:21;96771.19;;;2.18;100.00
74346;BME280;62776;50.518;6.732;2024-03-06T05:00:08;96783.94;;;2.15;100.00
74346;BME280;62776;50.518;6.732;2024-03-06T05:02:55;96779.69;;;2.16;100.00
74346;BME280;62776;50.518;6.732;2024-03-06T05:05:41;96777.84;;;2.12;100.00
74346;BME280;62776;50.518;6.732;2024-03-06T05:08:28;96776.06;;;2.08;100.00
74346;BME280;62776;50.518;6.732;2024-03-06T05:11:15;96778.63;;;2.08;100.00
74346;BME280;62776;50.518;6.732;2024-03-06T05:14:01;96774.31;;;2.07;100.00
74346;BME280;62776;50.518;6.732;2024-03-06T05:16:50;96778.69;;;2.11;100.00
74346;BME280;62776;50.518;6.732;2024-03-06T05:19:36;96778.72;;;2.12;100.00
74346;BME280;62776;50.518;6.732;2024-03-06T05:22:23;96782.97;;;2.12;100.00
74346;BME280;62776;50.518;6.732;2024-03-06T05:25:09;96787.22;;;2.10;100.00
74346;BME280;62776;50.518;6.732;2024-03-06T05:27:56;96788.03;;;2.09;100.00
74346;BME280;62776;50.518;6.732;2024-03-06T05:30:45;96797.38;;;2.07;100.00
74346;BME280;62776;50.518;6.732;2024-03-06T05:33:35;96802.34;;;2.01;100.00
74346;BME280;62776;50.518;6.732;2024-03-06T05:36:21;96807.41;;;1.98;100.00
74346;BME280;62776;50.518;6.732;2024-03-06T05:39:08;96809.09;;;1.97;100.00
74346;BME280;62776;50.518;6.732;2024-03-06T05:42:02;96813.28;;;1.94;100.00
74346;BME280;62776;50.518;6.732;2024-03-06T05:44:49;96805.78;;;2.01;100.00
74346;BME280;62776;50.518;6.732;2024-03-06T05:47:37;96813.44;;;2.00;100.00
74346;BME280;62776;50.518;6.732;2024-03-06T05:50:24;96821.13;;;2.00;100.00
74346;BME280;62776;50.518;6.732;2024-03-06T05:53:11;96825.41;;;2.01;100.00
74346;BME280;62776;50.518;6.732;2024-03-06T05:55:57;96826.19;;;1.98;100.00
74346;BME280;62776;50.518;6.732;2024-03-06T05:58:43;96835.56;;;1.96;100.00
74346;BME280;62776;50.518;6.732;2024-03-06T06:01:32;96836.38;;;1.95;100.00
74346;BME280;62776;50.518;6.732;2024-03-06T06:04:19;96834.66;;;1.94;100.00
74346;BME280;62776;50.518;6.732;2024-03-06T06:07:06;96841.44;;;1.92;100.00
74346;BME280;62776;50.518;6.732;2024-03-06T06:09:52;96842.28;;;1.93;100.00
74346;BME280;62776;50.518;6.732;2024-03-06T06:12:38;96839.00;;;1.97;100.00
74346;BME280;62776;50.518;6.732;2024-03-06T06:15:24;96848.47;;;2.01;100.00
74346;BME280;62776;50.518;6.732;2024-03-06T06:18:11;96848.47;;;2.01;100.00
74346;BME280;62776;50.518;6.732;2024-03-06T06:21:00;96855.34;;;2.00;100.00
74346;BME280;62776;50.518;6.732;2024-03-06T06:23:46;96857.91;;;2.00;100.00
74346;BME280;62776;50.518;6.732;2024-03-06T06:26:32;96861.38;;;2.04;100.00
74346;BME280;62776;50.518;6.732;2024-03-06T06:29:18;96870.81;;;2.05;100.00
74346;BME280;62776;50.518;6.732;2024-03-06T06:32:05;96865.81;;;2.09;100.00
74346;BME280;62776;50.518;6.732;2024-03-06T06:34:51;96872.78;;;2.13;100.00
74346;BME280;62776;50.518;6.732;2024-03-06T06:37:38;96878.00;;;2.16;100.00
74346;BME280;62776;50.518;6.732;2024-03-06T06:40:24;96890.13;;;2.23;100.00
74346;BME280;62776;50.518;6.732;2024-03-06T06:43:12;96893.66;;;2.27;100.00
74346;BME280;62776;50.518;6.732;2024-03-06T06:45:58;96892.06;;;2.32;100.00
74346;BME280;62776;50.518;6.732;2024-03-06T06:48:44;96886.22;;;2.36;100.00
74346;BME280;62776;50.518;6.732;2024-03-06T06:51:31;96898.53;;;2.49;100.00
74346;BME280;62776;50.518;6.732;2024-03-06T06:54:17;96898.78;;;2.58;100.00
74346;BME280;62776;50.518;6.732;2024-03-06T06:57:03;96900.75;;;2.70;100.00
74346;BME280;62776;50.518;6.732;2024-03-06T06:59:51;96899.31;;;2.79;100.00
74346;BME280;62776;50.518;6.732;2024-03-06T07:02:41;96902.97;;;2.89;100.00
74346;BME280;62776;50.518;6.732;2024-03-06T07:05:27;96910.09;;;3.01;100.00
74346;BME280;62776;50.518;6.732;2024-03-06T07:08:13;96913.88;;;3.15;100.00
74346;BME280;62776;50.518;6.732;2024-03-06T07:11:00;96906.47;;;3.28;100.00
74346;BME280;62776;50.518;6.732;2024-03-06T07:13:46;96913.75;;;3.46;100.00
74346;BME280;62776;50.518;6.732;2024-03-06T07:16:32;96915.78;;;3.61;100.00
74346;BME280;62776;50.518;6.732;2024-03-06T07:19:18;96917.84;;;3.77;100.00
74346;BME280;62776;50.518;6.732;2024-03-06T07:22:05;96923.28;;;3.90;100.00
74346;BME280;62776;50.518;6.732;2024-03-06T07:24:51;96918.44;;;4.04;100.00
74346;BME280;62776;50.518;6.732;2024-03-06T07:27:37;96925.59;;;4.18;100.00
74346;BME280;62776;50.518;6.732;2024-03-06T07:30:24;96921.59;;;4.33;100.00
74346;BME280;62776;50.518;6.732;2024-03-06T07:33:10;96923.56;;;4.46;100.00
74346;BME280;62776;50.518;6.732;2024-03-06T07:35:56;96933.22;;;4.57;100.00
74346;BME280;62776;50.518;6.732;2024-03-06T07:38:43;96932.53;;;4.66;100.00
74346;BME280;62776;50.518;6.732;2024-03-06T07:41:30;96940.38;;;4.72;100.00
74346;BME280;62776;50.518;6.732;2024-03-06T07:44:18;96936.09;;;4.74;100.00
74346;BME280;62776;50.518;6.732;2024-03-06T07:47:06;96933.66;;;4.80;100.00
74346;BME280;62776;50.518;6.732;2024-03-06T07:49:53;96938.00;;;4.84;100.00
74346;BME280;62776;50.518;6.732;2024-03-06T07:52:40;96932.03;;;4.85;100.00
74346;BME280;62776;50.518;6.732;2024-03-06T07:55:26;96941.63;;;4.94;100.00
74346;BME280;62776;50.518;6.732;2024-03-06T07:58:12;96936.59;;;5.01;100.00
74346;BME280;62776;50.518;6.732;2024-03-06T08:00:58;96934.13;;;5.07;100.00
74346;BME280;62776;50.518;6.732;2024-03-06T08:03:46;96938.59;;;5.17;100.00
74346;BME280;62776;50.518;6.732;2024-03-06T08:06:36;96934.47;;;5.27;100.00
74346;BME280;62776;50.518;6.732;2024-03-06T08:09:23;96943.22;;;5.38;100.00
74346;BME280;62776;50.518;6.732;2024-03-06T08:12:10;96941.69;;;5.49;100.00
74346;BME280;62776;50.518;6.732;2024-03-06T08:14:56;96947.88;;;5.62;100.00
74346;BME280;62776;50.518;6.732;2024-03-06T08:17:46;96954.91;;;5.72;100.00
74346;BME280;62776;50.518;6.732;2024-03-06T08:20:32;96963.66;;;5.83;100.00
74346;BME280;62776;50.518;6.732;2024-03-06T08:23:18;96959.50;;;5.91;100.00
74346;BME280;62776;50.518;6.732;2024-03-06T08:26:05;96963.09;;;6.01;100.00
74346;BME280;62776;50.518;6.732;2024-03-06T08:28:52;96964.09;;;6.10;100.00
74346;BME280;62776;50.518;6.732;2024-03-06T08:31:39;96971.13;;;6.20;100.00
74346;BME280;62776;50.518;6.732;2024-03-06T08:34:25;96972.97;;;6.29;100.00
74346;BME280;62776;50.518;6.732;2024-03-06T08:37:11;96975.66;;;6.39;100.00
74346;BME280;62776;50.518;6.732;2024-03-06T08:39:59;96974.91;;;6.48;100.00
74346;BME280;62776;50.518;6.732;2024-03-06T08:42:49;96975.09;;;6.62;100.00
74346;BME280;62776;50.518;6.732;2024-03-06T08:45:36;96975.19;;;6.74;100.00
74346;BME280;62776;50.518;6.732;2024-03-06T08:48:22;96977.94;;;6.86;100.00
74346;BME280;62776;50.518;6.732;2024-03-06T08:51:08;96977.19;;;6.99;100.00
74346;BME280;62776;50.518;6.732;2024-03-06T08:53:57;96974.78;;;7.14;100.00
74346;BME280;62776;50.518;6.732;2024-03-06T08:56:44;96980.09;;;7.29;100.00
74346;BME280;62776;50.518;6.732;2024-03-06T08:59:33;96981.03;;;7.37;100.00
74346;BME280;62776;50.518;6.732;2024-03-06T09:02:20;96975.94;;;7.46;100.00
74346;BME280;62776;50.518;6.732;2024-03-06T09:05:07;96984.63;;;7.54;100.00
74346;BME280;62776;50.518;6.732;2024-03-06T09:07:57;96977.75;;;7.58;100.00
74346;BME280;62776;50.518;6.732;2024-03-06T09:10:43;96978.66;;;7.63;100.00
74346;BME280;62776;50.518;6.732;2024-03-06T09:13:31;96981.19;;;7.58;100.00
74346;BME280;62776;50.518;6.732;2024-03-06T09:16:18;96989.75;;;7.48;100.00
74346;BME280;62776;50.518;6.732;2024-03-06T09:19:05;96987.09;;;7.42;100.00
74346;BME280;62776;50.518;6.732;2024-03-06T09:21:51;96991.31;;;7.31;100.00
74346;BME280;62776;50.518;6.732;2024-03-06T09:24:37;96991.25;;;7.22;100.00
74346;BME280;62776;50.518;6.732;2024-03-06T09:27:26;96992.06;;;7.20;100.00
74346;BME280;62776;50.518;6.732;2024-03-06T09:30:14;96996.34;;;7.16;100.00
74346;BME280;62776;50.518;6.732;2024-03-06T09:33:03;96997.25;;;7.23;100.00
74346;BME280;62776;50.518;6.732;2024-03-06T09:35:49;96999.03;;;7.28;100.00
74346;BME280;62776;50.518;6.732;2024-03-06T09:38:35;96996.44;;;7.27;100.00
74346;BME280;62776;50.518;6.732;2024-03-06T09:41:23;97005.88;;;7.23;100.00
74346;BME280;62776;50.518;6.732;2024-03-06T09:44:10;97012.75;;;7.20;100.00
74346;BME280;62776;50.518;6.732;2024-03-06T09:46:59;97012.72;;;7.17;100.00
74346;BME280;62776;50.518;6.732;2024-03-06T09:49:45;97018.72;;;7.17;100.00
74346;BME280;62776;50.518;6.732;2024-03-06T09:52:32;97018.75;;;7.20;100.00
74346;BME280;62776;50.518;6.732;2024-03-06T09:55:19;97018.88;;;7.29;100.00
74346;BME280;62776;50.518;6.732;2024-03-06T09:58:06;97027.59;;;7.40;100.00
74346;BME280;62776;50.518;6.732;2024-03-06T10:00:56;97027.69;;;7.49;100.00
74346;BME280;62776;50.518;6.732;2024-03-06T10:03:44;97020.78;;;7.48;100.00
74346;BME280;62776;50.518;6.732;2024-03-06T10:06:31;97023.34;;;7.50;100.00
74346;BME280;62776;50.518;6.732;2024-03-06T10:09:18;97017.38;;;7.52;100.00
74346;BME280;62776;50.518;6.732;2024-03-06T10:12:05;97017.34;;;7.51;100.00
74346;BME280;62776;50.518;6.732;2024-03-06T10:14:52;97026.84;;;7.53;100.00
74346;BME280;62776;50.518;6.732;2024-03-06T10:17:40;97020.91;;;7.66;100.00
74346;BME280;62776;50.518;6.732;2024-03-06T10:20:26;97027.97;;;7.83;100.00
74346;BME280;62776;50.518;6.732;2024-03-06T10:23:15;97021.13;;;7.88;100.00
74346;BME280;62776;50.518;6.732;2024-03-06T10:26:07;97024.56;;;7.90;100.00
74346;BME280;62776;50.518;6.732;2024-03-06T10:28:54;97025.53;;;8.01;100.00
74346;BME280;62776;50.518;6.732;2024-03-06T10:34:38;97034.34;;;8.27;100.00
74346;BME280;62776;50.518;6.732;2024-03-06T10:37:28;97022.38;;;8.43;100.00
74346;BME280;62776;50.518;6.732;2024-03-06T10:40:18;97032.78;;;8.58;100.00
74346;BME280;62776;50.518;6.732;2024-03-06T10:43:06;97027.69;;;8.73;100.00
74346;BME280;62776;50.518;6.732;2024-03-06T10:46:11;97036.34;;;8.78;100.00
74346;BME280;62776;50.518;6.732;2024-03-06T10:48:59;97034.69;;;9.01;100.00
74346;BME280;62776;50.518;6.732;2024-03-06T10:51:50;97026.13;;;9.22;100.00
74346;BME280;62776;50.518;6.732;2024-03-06T10:54:37;97033.09;;;9.36;100.00
74346;BME280;62776;50.518;6.732;2024-03-06T10:57:30;97035.72;;;9.47;100.00
74346;BME280;62776;50.518;6.732;2024-03-06T11:00:16;97031.38;;;9.55;100.00
74346;BME280;62776;50.518;6.732;2024-03-06T11:03:09;97035.72;;;9.55;100.00
74346;BME280;62776;50.518;6.732;2024-03-06T11:05:59;97036.56;;;9.67;100.00
74346;BME280;62776;50.518;6.732;2024-03-06T11:08:48;97027.91;;;9.70;100.00
74346;BME280;62776;50.518;6.732;2024-03-06T11:11:48;97035.72;;;9.58;100.00
74346;BME280;62776;50.518;6.732;2024-03-06T11:14:39;97027.94;;;9.67;100.00
74346;BME280;62776;50.518;6.732;2024-03-06T11:17:28;97035.72;;;9.68;100.00
74346;BME280;62776;50.518;6.732;2024-03-06T11:20:18;97035.72;;;9.71;100.00
74346;BME280;62776;50.518;6.732;2024-03-06T11:23:07;97036.59;;;9.84;100.00
74346;BME280;62776;50.518;6.732;2024-03-06T11:28:45;97038.31;;;10.06;100.00
74346;BME280;62776;50.518;6.732;2024-03-06T11:31:36;97040.94;;;10.27;100.00
74346;BME280;62776;50.518;6.732;2024-03-06T11:34:22;97036.59;;;10.37;100.00
74346;BME280;62776;50.518;6.732;2024-03-06T11:37:09;97035.66;;;10.56;100.00
74346;BME280;62776;50.518;6.732;2024-03-06T11:40:01;97036.56;;;10.52;100.00
74346;BME280;62776;50.518;6.732;2024-03-06T11:42:51;97029.59;;;10.58;100.00
74346;BME280;62776;50.518;6.732;2024-03-06T11:45:45;97038.25;;;10.68;100.00
74346;BME280;62776;50.518;6.732;2024-03-06T11:48:31;97035.59;;;10.82;100.00
74346;BME280;62776;50.518;6.732;2024-03-06T11:51:18;97034.72;;;10.90;100.00
74346;BME280;62776;50.518;6.732;2024-03-06T11:54:07;97038.19;;;10.85;100.00
74346;BME280;62776;50.518;6.732;2024-03-06T11:56:56;97035.59;;;10.83;100.00
74346;BME280;62776;50.518;6.732;2024-03-06T11:59:43;97030.34;;;10.91;100.00
74346;BME280;62776;50.518;6.732;2024-03-06T12:02:30;97034.72;;;10.90;100.00
74346;BME280;62776;50.518;6.732;2024-03-06T12:05:16;97038.16;;;10.88;100.00
74346;BME280;62776;50.518;6.732;2024-03-06T12:08:03;97038.13;;;10.98;100.00
74346;BME280;62776;50.518;6.732;2024-03-06T12:10:50;97037.22;;;11.08;100.00
74346;BME280;62776;50.518;6.732;2024-03-06T12:13:37;97038.88;;;11.18;100.00
74346;BME280;62776;50.518;6.732;2024-03-06T12:16:24;97033.63;;;11.31;100.00
74346;BME280;62776;50.518;6.732;2024-03-06T12:19:10;97030.09;;;11.38;100.00
74346;BME280;62776;50.518;6.732;2024-03-06T12:22:02;97039.69;;;11.34;100.00
74346;BME280;62776;50.518;6.732;2024-03-06T12:24:59;97033.66;;;11.27;100.00
74346;BME280;62776;50.518;6.732;2024-03-06T12:27:47;97041.53;;;11.11;100.00
74346;BME280;62776;50.518;6.732;2024-03-06T12:30:41;97043.34;;;10.88;100.00
74346;BME280;62776;50.518;6.732;2024-03-06T12:33:29;97036.38;;;10.99;100.00
74346;BME280;62776;50.518;6.732;2024-03-06T12:36:15;97037.28;;;10.95;100.00
74346;BME280;62776;50.518;6.732;2024-03-06T12:39:03;97050.31;;;10.90;100.00
74346;BME280;62776;50.518;6.732;2024-03-06T12:41:51;97046.84;;;10.93;100.00
74346;BME280;62776;50.518;6.732;2024-03-06T12:44:38;97045.03;;;11.05;100.00
74346;BME280;62776;50.518;6.732;2024-03-06T12:47:26;97042.41;;;11.11;100.00
74346;BME280;62776;50.518;6.732;2024-03-06T12:50:12;97044.13;;;11.11;100.00
74346;BME280;62776;50.518;6.732;2024-03-06T12:52:58;97049.41;;;11.00;100.00
74346;BME280;62776;50.518;6.732;2024-03-06T12:55:48;97047.66;;;10.96;100.00
74346;BME280;62776;50.518;6.732;2024-03-06T12:58:34;97048.53;;;11.01;100.00
74346;BME280;62776;50.518;6.732;2024-03-06T13:01:21;97046.78;;;10.99;100.00
74346;BME280;62776;50.518;6.732;2024-03-06T13:04:09;97056.38;;;10.92;100.00
74346;BME280;62776;50.518;6.732;2024-03-06T13:06:56;97051.16;;;10.89;100.00
74346;BME280;62776;50.518;6.732;2024-03-06T13:09:43;97052.91;;;10.87;100.00
74346;BME280;62776;50.518;6.732;2024-03-06T13:12:29;97049.50;;;10.76;100.00
74346;BME280;62776;50.518;6.732;2024-03-06T13:15:15;97049.44;;;10.85;100.00
74346;BME280;62776;50.518;6.732;2024-03-06T13:18:01;97049.44;;;10.93;100.00
74346;BME280;62776;50.518;6.732;2024-03-06T13:20:49;97052.00;;;11.00;100.00
74346;BME280;62776;50.518;6.732;2024-03-06T13:23:35;97043.22;;;11.18;100.00
74346;BME280;62776;50.518;6.732;2024-03-06T13:26:23;97049.28;;;11.21;100.00
74346;BME280;62776;50.518;6.732;2024-03-06T13:29:13;97048.47;;;11.15;100.00
74346;BME280;62776;50.518;6.732;2024-03-06T13:32:00;97052.81;;;11.08;100.00
74346;BME280;62776;50.518;6.732;2024-03-06T13:34:47;97052.88;;;10.93;100.00
74346;BME280;62776;50.518;6.732;2024-03-06T13:37:33;97052.91;;;10.86;100.00
74346;BME280;62776;50.518;6.732;2024-03-06T13:40:20;97058.13;;;10.78;100.00
74346;BME280;62776;50.518;6.732;2024-03-06T13:43:07;97051.22;;;10.70;100.00
74346;BME280;62776;50.518;6.732;2024-03-06T13:45:53;97056.44;;;10.70;100.00
74346;BME280;62776;50.518;6.732;2024-03-06T13:48:41;97060.75;;;10.72;100.00
74346;BME280;62776;50.518;6.732;2024-03-06T13:51:20;97059.88;;;10.81;100.00
74346;BME280;62776;50.518;6.732;2024-03-06T13:54:07;97057.25;;;10.85;100.00
74346;BME280;62776;50.518;6.732;2024-03-06T13:56:53;97061.59;;;10.77;100.00
74346;BME280;62776;50.518;6.732;2024-03-06T13:59:47;97060.75;;;10.63;100.00
74346;BME280;62776;50.518;6.732;2024-03-06T14:02:33;97059.97;;;10.52;100.00
74346;BME280;62776;50.518;6.732;2024-03-06T14:05:19;97057.38;;;10.40;100.00
74346;BME280;62776;50.518;6.732;2024-03-06T14:08:13;97059.09;;;10.30;100.00
74346;BME280;62776;50.518;6.732;2024-03-06T14:11:00;97060.84;;;10.24;100.00
74346;BME280;62776;50.518;6.732;2024-03-06T14:13:46;97065.19;;;10.20;100.00
74346;BME280;62776;50.518;6.732;2024-03-06T14:16:32;97065.16;;;10.11;100.00
74346;BME280;62776;50.518;6.732;2024-03-06T14:19:19;97064.31;;;10.11;100.00
74346;BME280;62776;50.518;6.732;2024-03-06T14:22:06;97061.69;;;10.04;100.00
74346;BME280;62776;50.518;6.732;2024-03-06T14:24:52;97060.00;;;10.13;100.00
74346;BME280;62776;50.518;6.732;2024-03-06T14:27:38;97050.47;;;10.18;100.00
74346;BME280;62776;50.518;6.732;2024-03-06T14:30:26;97053.06;;;10.33;100.00
74346;BME280;62776;50.518;6.732;2024-03-06T14:33:13;97055.53;;;10.87;100.00
74346;BME280;62776;50.518;6.732;2024-03-06T14:36:05;97056.84;;;11.71;100.00
74346;BME280;62776;50.518;6.732;2024-03-06T14:38:51;97057.22;;;12.32;97.63
74346;BME280;62776;50.518;6.732;2024-03-06T14:41:43;97058.31;;;12.94;94.18
74346;BME280;62776;50.518;6.732;2024-03-06T14:44:34;97065.44;;;12.80;83.47
74346;BME280;62776;50.518;6.732;2024-03-06T14:47:20;97060.31;;;13.44;79.01
74346;BME280;62776;50.518;6.732;2024-03-06T14:50:07;97052.84;;;14.34;68.98